sensor_id;sensor_type;location;lat;lon;timestamp;P1;durP1;ratioP1;P2;durP2;ratioP2
52718;SDS011;38616;42.140;24.760;2022-07-15T00:01:37;4.95;;;2.10;;
52718;SDS011;38616;42.140;24.760;2022-07-15T00:04:03;4.93;;;1.83;;
52718;SDS011;38616;42.140;24.760;2022-07-15T00:06:29;6.10;;;2.15;;
52718;SDS011;38616;42.140;24.760;2022-07-15T00:08:54;7.82;;;2.03;;
52718;SDS011;38616;42.140;24.760;2022-07-15T00:11:20;10.43;;;2.70;;
52718;SDS011;38616;42.140;24.760;2022-07-15T00:13:45;6.35;;;2.45;;
52718;SDS011;38616;42.140;24.760;2022-07-15T00:16:11;12.32;;;2.30;;
52718;SDS011;38616;42.140;24.760;2022-07-15T00:18:39;4.78;;;1.98;;
52718;SDS011;38616;42.140;24.760;2022-07-15T00:21:05;6.32;;;1.77;;
52718;SDS011;38616;42.140;24.760;2022-07-15T00:23:31;6.43;;;2.00;;
52718;SDS011;38616;42.140;24.760;2022-07-15T00:25:56;3.97;;;2.42;;
52718;SDS011;38616;42.140;24.760;2022-07-15T00:28:21;7.63;;;2.38;;
52718;SDS011;38616;42.140;24.760;2022-07-15T00:30:49;4.65;;;2.10;;
52718;SDS011;38616;42.140;24.760;2022-07-15T00:33:15;4.82;;;1.95;;
52718;SDS011;38616;42.140;24.760;2022-07-15T00:35:41;5.03;;;2.20;;
52718;SDS011;38616;42.140;24.760;2022-07-15T00:38:07;6.65;;;2.40;;
52718;SDS011;38616;42.140;24.760;2022-07-15T00:40:38;3.47;;;2.15;;
52718;SDS011;38616;42.140;24.760;2022-07-15T00:43:08;6.45;;;2.13;;
52718;SDS011;38616;42.140;24.760;2022-07-15T00:45:33;4.22;;;1.85;;
52718;SDS011;38616;42.140;24.760;2022-07-15T00:47:58;6.53;;;2.28;;
52718;SDS011;38616;42.140;24.760;2022-07-15T00:50:26;4.15;;;2.10;;
52718;SDS011;38616;42.140;24.760;2022-07-15T00:52:59;5.78;;;1.77;;
52718;SDS011;38616;42.140;24.760;2022-07-15T00:55:29;4.93;;;2.20;;
52718;SDS011;38616;42.140;24.760;2022-07-15T00:57:58;4.72;;;1.70;;
52718;SDS011;38616;42.140;24.760;2022-07-15T01:00:27;6.72;;;2.00;;
52718;SDS011;38616;42.140;24.760;2022-07-15T01:02:53;4.05;;;1.92;;
52718;SDS011;38616;42.140;24.760;2022-07-15T01:05:19;3.90;;;1.45;;
52718;SDS011;38616;42.140;24.760;2022-07-15T01:07:46;5.13;;;1.80;;
52718;SDS011;38616;42.140;24.760;2022-07-15T01:10:15;8.13;;;1.92;;
52718;SDS011;38616;42.140;24.760;2022-07-15T01:12:41;4.43;;;1.67;;
52718;SDS011;38616;42.140;24.760;2022-07-15T01:15:07;6.57;;;1.52;;
52718;SDS011;38616;42.140;24.760;2022-07-15T01:17:34;5.43;;;2.38;;
52718;SDS011;38616;42.140;24.760;2022-07-15T01:19:59;5.75;;;2.03;;
52718;SDS011;38616;42.140;24.760;2022-07-15T01:22:25;8.90;;;1.48;;
52718;SDS011;38616;42.140;24.760;2022-07-15T01:24:50;8.43;;;1.75;;
52718;SDS011;38616;42.140;24.760;2022-07-15T01:27:16;2.10;;;1.65;;
52718;SDS011;38616;42.140;24.760;2022-07-15T01:29:42;5.25;;;1.55;;
52718;SDS011;38616;42.140;24.760;2022-07-15T01:32:07;5.60;;;2.53;;
52718;SDS011;38616;42.140;24.760;2022-07-15T01:34:33;5.20;;;1.95;;
52718;SDS011;38616;42.140;24.760;2022-07-15T01:36:59;7.47;;;2.10;;
52718;SDS011;38616;42.140;24.760;2022-07-15T01:39:25;3.90;;;2.22;;
52718;SDS011;38616;42.140;24.760;2022-07-15T01:41:50;3.17;;;1.70;;
52718;SDS011;38616;42.140;24.760;2022-07-15T01:44:15;5.05;;;2.42;;
52718;SDS011;38616;42.140;24.760;2022-07-15T01:46:41;4.43;;;1.80;;
52718;SDS011;38616;42.140;24.760;2022-07-15T01:49:06;5.47;;;2.15;;
52718;SDS011;38616;42.140;24.760;2022-07-15T01:51:47;6.72;;;2.22;;
52718;SDS011;38616;42.140;24.760;2022-07-15T01:54:16;4.45;;;1.80;;
52718;SDS011;38616;42.140;24.760;2022-07-15T01:56:42;3.47;;;1.60;;
52718;SDS011;38616;42.140;24.760;2022-07-15T01:59:08;5.28;;;1.70;;
52718;SDS011;38616;42.140;24.760;2022-07-15T02:01:34;7.38;;;2.20;;
52718;SDS011;38616;42.140;24.760;2022-07-15T02:04:00;4.95;;;1.90;;
52718;SDS011;38616;42.140;24.760;2022-07-15T02:06:26;10.38;;;2.20;;
52718;SDS011;38616;42.140;24.760;2022-07-15T02:08:51;7.13;;;2.78;;
52718;SDS011;38616;42.140;24.760;2022-07-15T02:11:17;6.88;;;2.15;;
52718;SDS011;38616;42.140;24.760;2022-07-15T02:13:42;3.80;;;2.00;;
52718;SDS011;38616;42.140;24.760;2022-07-15T02:16:08;6.40;;;2.53;;
52718;SDS011;38616;42.140;24.760;2022-07-15T02:18:33;7.68;;;2.22;;
52718;SDS011;38616;42.140;24.760;2022-07-15T02:20:59;7.82;;;2.17;;
52718;SDS011;38616;42.140;24.760;2022-07-15T02:23:26;4.03;;;1.77;;
52718;SDS011;38616;42.140;24.760;2022-07-15T02:25:51;4.20;;;1.83;;
52718;SDS011;38616;42.140;24.760;2022-07-15T02:28:17;5.13;;;1.90;;
52718;SDS011;38616;42.140;24.760;2022-07-15T02:30:42;6.40;;;2.22;;
52718;SDS011;38616;42.140;24.760;2022-07-15T02:33:09;4.88;;;1.77;;
52718;SDS011;38616;42.140;24.760;2022-07-15T02:35:36;3.60;;;2.08;;
52718;SDS011;38616;42.140;24.760;2022-07-15T02:38:02;11.20;;;2.40;;
52718;SDS011;38616;42.140;24.760;2022-07-15T02:40:28;4.55;;;2.10;;
52718;SDS011;38616;42.140;24.760;2022-07-15T02:42:56;5.43;;;2.30;;
52718;SDS011;38616;42.140;24.760;2022-07-15T02:45:23;3.85;;;2.00;;
52718;SDS011;38616;42.140;24.760;2022-07-15T02:47:50;4.57;;;2.20;;
52718;SDS011;38616;42.140;24.760;2022-07-15T02:50:17;4.93;;;1.85;;
52718;SDS011;38616;42.140;24.760;2022-07-15T02:52:43;4.43;;;1.65;;
52718;SDS011;38616;42.140;24.760;2022-07-15T02:55:10;6.45;;;2.40;;
52718;SDS011;38616;42.140;24.760;2022-07-15T02:57:36;5.10;;;1.95;;
52718;SDS011;38616;42.140;24.760;2022-07-15T03:00:03;3.85;;;2.20;;
52718;SDS011;38616;42.140;24.760;2022-07-15T03:02:30;2.58;;;1.92;;
52718;SDS011;38616;42.140;24.760;2022-07-15T03:04:56;2.92;;;1.77;;
52718;SDS011;38616;42.140;24.760;2022-07-15T03:07:21;6.95;;;2.05;;
52718;SDS011;38616;42.140;24.760;2022-07-15T03:09:47;4.28;;;2.35;;
52718;SDS011;38616;42.140;24.760;2022-07-15T03:12:13;4.65;;;2.13;;
52718;SDS011;38616;42.140;24.760;2022-07-15T03:14:38;5.50;;;2.05;;
52718;SDS011;38616;42.140;24.760;2022-07-15T03:17:05;8.48;;;2.17;;
52718;SDS011;38616;42.140;24.760;2022-07-15T03:19:30;5.53;;;2.05;;
52718;SDS011;38616;42.140;24.760;2022-07-15T03:21:56;7.55;;;2.45;;
52718;SDS011;38616;42.140;24.760;2022-07-15T03:24:21;3.10;;;1.63;;
52718;SDS011;38616;42.140;24.760;2022-07-15T03:26:47;4.43;;;1.90;;
52718;SDS011;38616;42.140;24.760;2022-07-15T03:29:12;5.25;;;2.15;;
52718;SDS011;38616;42.140;24.760;2022-07-15T03:31:40;3.38;;;2.03;;
52718;SDS011;38616;42.140;24.760;2022-07-15T03:34:07;3.70;;;1.80;;
52718;SDS011;38616;42.140;24.760;2022-07-15T03:36:32;3.65;;;1.90;;
52718;SDS011;38616;42.140;24.760;2022-07-15T03:38:58;3.65;;;2.00;;
52718;SDS011;38616;42.140;24.760;2022-07-15T03:41:23;3.70;;;2.10;;
52718;SDS011;38616;42.140;24.760;2022-07-15T03:43:48;4.75;;;1.83;;
52718;SDS011;38616;42.140;24.760;2022-07-15T03:46:14;5.72;;;1.83;;
52718;SDS011;38616;42.140;24.760;2022-07-15T03:48:40;5.75;;;1.70;;
52718;SDS011;38616;42.140;24.760;2022-07-15T03:51:06;7.93;;;2.63;;
52718;SDS011;38616;42.140;24.760;2022-07-15T03:53:31;5.28;;;2.30;;
52718;SDS011;38616;42.140;24.760;2022-07-15T03:55:56;6.85;;;3.28;;
52718;SDS011;38616;42.140;24.760;2022-07-15T03:58:22;8.57;;;3.10;;
52718;SDS011;38616;42.140;24.760;2022-07-15T04:00:47;10.05;;;4.03;;
52718;SDS011;38616;42.140;24.760;2022-07-15T04:03:13;4.32;;;2.70;;
52718;SDS011;38616;42.140;24.760;2022-07-15T04:05:38;7.80;;;2.25;;
52718;SDS011;38616;42.140;24.760;2022-07-15T04:08:04;5.35;;;2.20;;
52718;SDS011;38616;42.140;24.760;2022-07-15T04:10:30;2.65;;;2.00;;
52718;SDS011;38616;42.140;24.760;2022-07-15T04:12:56;7.72;;;2.20;;
52718;SDS011;38616;42.140;24.760;2022-07-15T04:15:21;7.10;;;2.40;;
52718;SDS011;38616;42.140;24.760;2022-07-15T04:17:47;3.65;;;1.92;;
52718;SDS011;38616;42.140;24.760;2022-07-15T04:20:12;4.60;;;1.90;;
52718;SDS011;38616;42.140;24.760;2022-07-15T04:22:39;3.13;;;2.10;;
52718;SDS011;38616;42.140;24.760;2022-07-15T04:25:08;4.35;;;2.03;;
52718;SDS011;38616;42.140;24.760;2022-07-15T04:27:36;4.70;;;2.38;;
52718;SDS011;38616;42.140;24.760;2022-07-15T04:30:02;10.10;;;2.80;;
52718;SDS011;38616;42.140;24.760;2022-07-15T04:32:30;5.72;;;2.50;;
52718;SDS011;38616;42.140;24.760;2022-07-15T04:34:56;5.03;;;2.13;;
52718;SDS011;38616;42.140;24.760;2022-07-15T04:37:22;5.80;;;2.40;;
52718;SDS011;38616;42.140;24.760;2022-07-15T04:39:47;10.00;;;2.05;;
52718;SDS011;38616;42.140;24.760;2022-07-15T04:42:13;4.82;;;2.10;;
52718;SDS011;38616;42.140;24.760;2022-07-15T04:44:39;5.78;;;2.00;;
52718;SDS011;38616;42.140;24.760;2022-07-15T04:47:04;6.57;;;2.92;;
52718;SDS011;38616;42.140;24.760;2022-07-15T04:49:30;7.72;;;1.73;;
52718;SDS011;38616;42.140;24.760;2022-07-15T04:52:14;8.50;;;2.13;;
52718;SDS011;38616;42.140;24.760;2022-07-15T04:54:39;7.57;;;2.38;;
52718;SDS011;38616;42.140;24.760;2022-07-15T04:57:05;6.68;;;2.92;;
52718;SDS011;38616;42.140;24.760;2022-07-15T04:59:30;3.95;;;1.98;;
52718;SDS011;38616;42.140;24.760;2022-07-15T05:01:57;4.70;;;1.93;;
52718;SDS011;38616;42.140;24.760;2022-07-15T05:04:23;4.53;;;2.08;;
52718;SDS011;38616;42.140;24.760;2022-07-15T05:06:48;3.53;;;1.90;;
52718;SDS011;38616;42.140;24.760;2022-07-15T05:09:14;4.18;;;2.30;;
52718;SDS011;38616;42.140;24.760;2022-07-15T05:11:39;6.15;;;2.47;;
52718;SDS011;38616;42.140;24.760;2022-07-15T05:14:05;7.00;;;2.75;;
52718;SDS011;38616;42.140;24.760;2022-07-15T05:16:30;8.05;;;2.10;;
52718;SDS011;38616;42.140;24.760;2022-07-15T05:18:56;5.32;;;1.65;;
52718;SDS011;38616;42.140;24.760;2022-07-15T05:21:21;9.55;;;1.90;;
52718;SDS011;38616;42.140;24.760;2022-07-15T05:23:47;5.88;;;1.90;;
52718;SDS011;38616;42.140;24.760;2022-07-15T05:26:12;5.85;;;2.15;;
52718;SDS011;38616;42.140;24.760;2022-07-15T05:28:38;3.60;;;2.00;;
52718;SDS011;38616;42.140;24.760;2022-07-15T05:31:06;4.55;;;1.85;;
52718;SDS011;38616;42.140;24.760;2022-07-15T05:33:31;7.18;;;2.08;;
52718;SDS011;38616;42.140;24.760;2022-07-15T05:35:57;5.95;;;1.65;;
52718;SDS011;38616;42.140;24.760;2022-07-15T05:38:23;9.40;;;3.28;;
52718;SDS011;38616;42.140;24.760;2022-07-15T05:40:48;7.78;;;2.70;;
52718;SDS011;38616;42.140;24.760;2022-07-15T05:43:14;6.53;;;3.55;;
52718;SDS011;38616;42.140;24.760;2022-07-15T05:45:39;4.28;;;2.42;;
52718;SDS011;38616;42.140;24.760;2022-07-15T05:48:05;6.60;;;2.42;;
52718;SDS011;38616;42.140;24.760;2022-07-15T05:50:30;9.35;;;2.03;;
52718;SDS011;38616;42.140;24.760;2022-07-15T05:52:56;9.77;;;2.30;;
52718;SDS011;38616;42.140;24.760;2022-07-15T05:55:21;5.80;;;2.10;;
52718;SDS011;38616;42.140;24.760;2022-07-15T05:57:48;5.40;;;2.75;;
52718;SDS011;38616;42.140;24.760;2022-07-15T06:00:14;7.03;;;2.97;;
52718;SDS011;38616;42.140;24.760;2022-07-15T06:02:40;3.35;;;2.17;;
52718;SDS011;38616;42.140;24.760;2022-07-15T06:05:06;7.13;;;3.20;;
52718;SDS011;38616;42.140;24.760;2022-07-15T06:07:33;9.00;;;2.60;;
52718;SDS011;38616;42.140;24.760;2022-07-15T06:09:59;6.88;;;2.40;;
52718;SDS011;38616;42.140;24.760;2022-07-15T06:12:24;6.65;;;2.65;;
52718;SDS011;38616;42.140;24.760;2022-07-15T06:14:51;8.53;;;2.63;;
52718;SDS011;38616;42.140;24.760;2022-07-15T06:17:16;5.63;;;2.78;;
52718;SDS011;38616;42.140;24.760;2022-07-15T06:19:42;8.10;;;3.40;;
52718;SDS011;38616;42.140;24.760;2022-07-15T06:22:07;8.75;;;2.08;;
52718;SDS011;38616;42.140;24.760;2022-07-15T06:24:32;5.65;;;2.58;;
52718;SDS011;38616;42.140;24.760;2022-07-15T06:26:58;7.30;;;2.40;;
52718;SDS011;38616;42.140;24.760;2022-07-15T06:29:23;7.18;;;3.08;;
52718;SDS011;38616;42.140;24.760;2022-07-15T06:31:49;10.65;;;4.10;;
52718;SDS011;38616;42.140;24.760;2022-07-15T06:34:15;7.45;;;4.00;;
52718;SDS011;38616;42.140;24.760;2022-07-15T06:36:40;26.42;;;3.30;;
52718;SDS011;38616;42.140;24.760;2022-07-15T06:39:06;9.10;;;2.42;;
52718;SDS011;38616;42.140;24.760;2022-07-15T06:41:32;5.97;;;2.08;;
52718;SDS011;38616;42.140;24.760;2022-07-15T06:43:58;5.97;;;2.42;;
52718;SDS011;38616;42.140;24.760;2022-07-15T06:46:24;7.85;;;2.83;;
52718;SDS011;38616;42.140;24.760;2022-07-15T06:48:50;9.00;;;2.22;;
52718;SDS011;38616;42.140;24.760;2022-07-15T06:51:15;5.93;;;2.20;;
52718;SDS011;38616;42.140;24.760;2022-07-15T06:53:41;7.03;;;1.98;;
52718;SDS011;38616;42.140;24.760;2022-07-15T06:56:07;6.20;;;1.70;;
52718;SDS011;38616;42.140;24.760;2022-07-15T06:58:33;5.22;;;1.38;;
52718;SDS011;38616;42.140;24.760;2022-07-15T07:00:59;9.50;;;2.05;;
52718;SDS011;38616;42.140;24.760;2022-07-15T07:03:24;5.32;;;1.95;;
52718;SDS011;38616;42.140;24.760;2022-07-15T07:05:50;3.92;;;1.80;;
52718;SDS011;38616;42.140;24.760;2022-07-15T07:08:16;5.50;;;2.17;;
52718;SDS011;38616;42.140;24.760;2022-07-15T07:10:41;5.50;;;2.08;;
52718;SDS011;38616;42.140;24.760;2022-07-15T07:13:07;2.50;;;2.03;;
52718;SDS011;38616;42.140;24.760;2022-07-15T07:15:32;6.05;;;1.70;;
52718;SDS011;38616;42.140;24.760;2022-07-15T07:17:58;5.15;;;2.00;;
52718;SDS011;38616;42.140;24.760;2022-07-15T07:20:23;4.68;;;1.67;;
52718;SDS011;38616;42.140;24.760;2022-07-15T07:22:49;6.63;;;1.55;;
52718;SDS011;38616;42.140;24.760;2022-07-15T07:25:14;7.18;;;2.00;;
52718;SDS011;38616;42.140;24.760;2022-07-15T07:27:39;4.45;;;2.03;;
52718;SDS011;38616;42.140;24.760;2022-07-15T07:30:05;9.10;;;3.75;;
52718;SDS011;38616;42.140;24.760;2022-07-15T07:32:31;9.38;;;7.78;;
52718;SDS011;38616;42.140;24.760;2022-07-15T07:34:57;11.77;;;7.60;;
52718;SDS011;38616;42.140;24.760;2022-07-15T07:37:23;10.73;;;6.10;;
52718;SDS011;38616;42.140;24.760;2022-07-15T07:39:49;7.05;;;3.83;;
52718;SDS011;38616;42.140;24.760;2022-07-15T07:42:15;5.07;;;2.80;;
52718;SDS011;38616;42.140;24.760;2022-07-15T07:44:41;5.15;;;2.20;;
52718;SDS011;38616;42.140;24.760;2022-07-15T07:47:08;5.80;;;2.20;;
52718;SDS011;38616;42.140;24.760;2022-07-15T07:49:33;7.43;;;1.90;;
52718;SDS011;38616;42.140;24.760;2022-07-15T07:51:59;5.22;;;2.00;;
52718;SDS011;38616;42.140;24.760;2022-07-15T07:54:24;6.47;;;1.70;;
52718;SDS011;38616;42.140;24.760;2022-07-15T07:56:49;6.18;;;1.98;;
52718;SDS011;38616;42.140;24.760;2022-07-15T07:59:15;6.00;;;3.00;;
52718;SDS011;38616;42.140;24.760;2022-07-15T08:01:40;3.38;;;1.90;;
52718;SDS011;38616;42.140;24.760;2022-07-15T08:04:06;8.07;;;2.47;;
52718;SDS011;38616;42.140;24.760;2022-07-15T08:06:31;5.18;;;2.88;;
52718;SDS011;38616;42.140;24.760;2022-07-15T08:08:59;7.03;;;1.70;;
52718;SDS011;38616;42.140;24.760;2022-07-15T08:11:24;4.57;;;1.90;;
52718;SDS011;38616;42.140;24.760;2022-07-15T08:13:50;4.32;;;2.10;;
52718;SDS011;38616;42.140;24.760;2022-07-15T08:16:15;2.53;;;1.60;;
52718;SDS011;38616;42.140;24.760;2022-07-15T08:18:41;3.92;;;2.10;;
52718;SDS011;38616;42.140;24.760;2022-07-15T08:21:08;10.27;;;1.80;;
52718;SDS011;38616;42.140;24.760;2022-07-15T08:23:33;6.72;;;1.83;;
52718;SDS011;38616;42.140;24.760;2022-07-15T08:25:59;6.45;;;1.80;;
52718;SDS011;38616;42.140;24.760;2022-07-15T08:28:25;4.45;;;2.50;;
52718;SDS011;38616;42.140;24.760;2022-07-15T08:30:51;4.60;;;2.38;;
52718;SDS011;38616;42.140;24.760;2022-07-15T08:33:16;3.78;;;1.73;;
52718;SDS011;38616;42.140;24.760;2022-07-15T08:35:42;5.43;;;1.92;;
52718;SDS011;38616;42.140;24.760;2022-07-15T08:38:08;5.55;;;1.85;;
52718;SDS011;38616;42.140;24.760;2022-07-15T08:40:35;6.50;;;1.73;;
52718;SDS011;38616;42.140;24.760;2022-07-15T08:43:02;4.18;;;1.95;;
52718;SDS011;38616;42.140;24.760;2022-07-15T08:45:28;4.22;;;1.50;;
52718;SDS011;38616;42.140;24.760;2022-07-15T08:47:53;6.22;;;1.90;;
52718;SDS011;38616;42.140;24.760;2022-07-15T08:50:22;3.45;;;1.98;;
52718;SDS011;38616;42.140;24.760;2022-07-15T08:52:47;4.07;;;1.75;;
52718;SDS011;38616;42.140;24.760;2022-07-15T08:55:13;4.07;;;1.50;;
52718;SDS011;38616;42.140;24.760;2022-07-15T08:57:44;3.90;;;1.50;;
52718;SDS011;38616;42.140;24.760;2022-07-15T09:00:11;3.15;;;1.58;;
52718;SDS011;38616;42.140;24.760;2022-07-15T09:02:37;4.72;;;1.88;;
52718;SDS011;38616;42.140;24.760;2022-07-15T09:08:26;4.63;;;2.13;;
52718;SDS011;38616;42.140;24.760;2022-07-15T09:10:49;3.92;;;1.48;;
52718;SDS011;38616;42.140;24.760;2022-07-15T09:13:27;1.95;;;1.27;;
52718;SDS011;38616;42.140;24.760;2022-07-15T09:15:56;2.88;;;1.50;;
52718;SDS011;38616;42.140;24.760;2022-07-15T09:18:24;8.25;;;2.50;;
52718;SDS011;38616;42.140;24.760;2022-07-15T09:20:55;3.95;;;1.55;;
52718;SDS011;38616;42.140;24.760;2022-07-15T09:23:22;1.58;;;1.30;;
52718;SDS011;38616;42.140;24.760;2022-07-15T09:25:56;4.53;;;1.40;;
52718;SDS011;38616;42.140;24.760;2022-07-15T09:28:34;3.35;;;1.45;;
52718;SDS011;38616;42.140;24.760;2022-07-15T09:31:05;2.55;;;1.35;;
52718;SDS011;38616;42.140;24.760;2022-07-15T09:33:50;4.22;;;1.92;;
52718;SDS011;38616;42.140;24.760;2022-07-15T09:36:24;2.10;;;1.50;;
52718;SDS011;38616;42.140;24.760;2022-07-15T09:38:52;4.65;;;1.50;;
52718;SDS011;38616;42.140;24.760;2022-07-15T09:41:28;2.30;;;1.48;;
52718;SDS011;38616;42.140;24.760;2022-07-15T09:44:12;5.90;;;1.40;;
52718;SDS011;38616;42.140;24.760;2022-07-15T09:54:22;8.25;;;1.70;;
52718;SDS011;38616;42.140;24.760;2022-07-15T09:56:55;4.63;;;1.48;;
52718;SDS011;38616;42.140;24.760;2022-07-15T09:59:23;5.55;;;1.90;;
52718;SDS011;38616;42.140;24.760;2022-07-15T10:01:49;5.47;;;1.63;;
52718;SDS011;38616;42.140;24.760;2022-07-15T10:04:23;3.47;;;1.20;;
52718;SDS011;38616;42.140;24.760;2022-07-15T10:06:51;3.88;;;1.80;;
52718;SDS011;38616;42.140;24.760;2022-07-15T10:09:25;4.32;;;1.58;;
52718;SDS011;38616;42.140;24.760;2022-07-15T10:11:56;8.20;;;1.90;;
52718;SDS011;38616;42.140;24.760;2022-07-15T10:31:22;9.15;;;5.45;;
52718;SDS011;38616;42.140;24.760;2022-07-15T10:39:12;4.22;;;1.23;;
52718;SDS011;38616;42.140;24.760;2022-07-15T10:44:30;3.55;;;1.65;;
52718;SDS011;38616;42.140;24.760;2022-07-15T10:49:37;2.65;;;1.88;;
52718;SDS011;38616;42.140;24.760;2022-07-15T10:57:20;3.85;;;1.20;;
52718;SDS011;38616;42.140;24.760;2022-07-15T11:00:51;4.43;;;1.83;;
52718;SDS011;38616;42.140;24.760;2022-07-15T11:03:06;4.93;;;3.00;;
52718;SDS011;38616;42.140;24.760;2022-07-15T11:13:39;1.77;;;1.20;;
52718;SDS011;38616;42.140;24.760;2022-07-15T11:16:05;9.50;;;1.50;;
52718;SDS011;38616;42.140;24.760;2022-07-15T11:18:44;3.28;;;1.90;;
52718;SDS011;38616;42.140;24.760;2022-07-15T11:21:18;7.40;;;2.38;;
52718;SDS011;38616;42.140;24.760;2022-07-15T11:23:46;5.88;;;1.20;;
52718;SDS011;38616;42.140;24.760;2022-07-15T11:26:14;1.75;;;1.42;;
52718;SDS011;38616;42.140;24.760;2022-07-15T11:28:52;3.45;;;1.80;;
52718;SDS011;38616;42.140;24.760;2022-07-15T11:31:19;4.32;;;1.10;;
52718;SDS011;38616;42.140;24.760;2022-07-15T11:33:45;1.85;;;1.25;;
52718;SDS011;38616;42.140;24.760;2022-07-15T11:36:16;1.48;;;1.20;;
52718;SDS011;38616;42.140;24.760;2022-07-15T11:38:43;0.90;;;0.82;;
52718;SDS011;38616;42.140;24.760;2022-07-15T11:41:08;4.82;;;1.63;;
52718;SDS011;38616;42.140;24.760;2022-07-15T11:43:59;3.53;;;1.55;;
52718;SDS011;38616;42.140;24.760;2022-07-15T11:46:48;2.50;;;1.20;;
52718;SDS011;38616;42.140;24.760;2022-07-15T11:49:47;2.78;;;1.23;;
52718;SDS011;38616;42.140;24.760;2022-07-15T11:52:12;2.88;;;1.38;;
52718;SDS011;38616;42.140;24.760;2022-07-15T11:54:48;4.35;;;1.30;;
52718;SDS011;38616;42.140;24.760;2022-07-15T11:57:13;2.25;;;1.33;;
52718;SDS011;38616;42.140;24.760;2022-07-15T11:59:40;4.97;;;2.47;;
52718;SDS011;38616;42.140;24.760;2022-07-15T12:02:10;4.32;;;1.25;;
52718;SDS011;38616;42.140;24.760;2022-07-15T12:04:37;2.90;;;1.42;;
52718;SDS011;38616;42.140;24.760;2022-07-15T12:07:04;5.68;;;1.20;;
52718;SDS011;38616;42.140;24.760;2022-07-15T12:12:05;2.47;;;1.30;;
52718;SDS011;38616;42.140;24.760;2022-07-15T12:14:31;3.45;;;1.30;;
52718;SDS011;38616;42.140;24.760;2022-07-15T12:16:57;6.60;;;1.50;;
52718;SDS011;38616;42.140;24.760;2022-07-15T12:19:26;4.00;;;1.25;;
52718;SDS011;38616;42.140;24.760;2022-07-15T12:21:54;4.15;;;1.10;;
52718;SDS011;38616;42.140;24.760;2022-07-15T12:24:22;1.73;;;1.10;;
52718;SDS011;38616;42.140;24.760;2022-07-15T12:27:12;4.32;;;1.17;;
52718;SDS011;38616;42.140;24.760;2022-07-15T12:29:39;4.00;;;1.20;;
52718;SDS011;38616;42.140;24.760;2022-07-15T12:32:09;7.50;;;1.50;;
52718;SDS011;38616;42.140;24.760;2022-07-15T12:37:19;2.00;;;1.50;;
52718;SDS011;38616;42.140;24.760;2022-07-15T12:42:22;2.50;;;1.30;;
52718;SDS011;38616;42.140;24.760;2022-07-15T12:50:01;2.75;;;1.20;;
52718;SDS011;38616;42.140;24.760;2022-07-15T12:52:36;1.42;;;1.30;;
52718;SDS011;38616;42.140;24.760;2022-07-15T12:55:16;3.38;;;1.40;;
52718;SDS011;38616;42.140;24.760;2022-07-15T12:57:44;6.53;;;1.30;;
52718;SDS011;38616;42.140;24.760;2022-07-15T13:00:11;7.10;;;1.45;;
52718;SDS011;38616;42.140;24.760;2022-07-15T13:05:34;5.93;;;1.23;;
52718;SDS011;38616;42.140;24.760;2022-07-15T13:08:08;2.90;;;1.55;;
52718;SDS011;38616;42.140;24.760;2022-07-15T13:10:39;2.25;;;1.17;;
52718;SDS011;38616;42.140;24.760;2022-07-15T13:13:06;2.42;;;1.10;;
52718;SDS011;38616;42.140;24.760;2022-07-15T13:17:58;2.65;;;1.17;;
52718;SDS011;38616;42.140;24.760;2022-07-15T13:20:24;3.33;;;1.20;;
52718;SDS011;38616;42.140;24.760;2022-07-15T13:25:35;7.15;;;2.45;;
52718;SDS011;38616;42.140;24.760;2022-07-15T13:28:02;2.93;;;1.30;;
52718;SDS011;38616;42.140;24.760;2022-07-15T13:30:28;4.38;;;1.27;;
52718;SDS011;38616;42.140;24.760;2022-07-15T13:32:53;2.90;;;1.08;;
52718;SDS011;38616;42.140;24.760;2022-07-15T13:35:19;2.42;;;1.35;;
52718;SDS011;38616;42.140;24.760;2022-07-15T13:37:44;9.23;;;1.38;;
52718;SDS011;38616;42.140;24.760;2022-07-15T13:40:11;2.10;;;1.65;;
52718;SDS011;38616;42.140;24.760;2022-07-15T13:45:03;2.63;;;1.48;;
52718;SDS011;38616;42.140;24.760;2022-07-15T13:47:30;2.88;;;1.48;;
52718;SDS011;38616;42.140;24.760;2022-07-15T13:49:58;1.52;;;1.38;;
52718;SDS011;38616;42.140;24.760;2022-07-15T13:52:46;8.35;;;2.08;;
52718;SDS011;38616;42.140;24.760;2022-07-15T13:55:13;1.42;;;1.05;;
52718;SDS011;38616;42.140;24.760;2022-07-15T13:57:39;1.90;;;1.30;;
52718;SDS011;38616;42.140;24.760;2022-07-15T14:00:06;3.42;;;1.40;;
52718;SDS011;38616;42.140;24.760;2022-07-15T14:02:34;10.90;;;3.65;;
52718;SDS011;38616;42.140;24.760;2022-07-15T14:05:00;6.80;;;1.85;;
52718;SDS011;38616;42.140;24.760;2022-07-15T14:07:26;3.65;;;1.83;;
52718;SDS011;38616;42.140;24.760;2022-07-15T14:09:51;2.08;;;1.50;;
52718;SDS011;38616;42.140;24.760;2022-07-15T14:12:17;5.55;;;1.60;;
52718;SDS011;38616;42.140;24.760;2022-07-15T14:14:43;3.25;;;1.27;;
52718;SDS011;38616;42.140;24.760;2022-07-15T14:17:08;4.45;;;1.23;;
52718;SDS011;38616;42.140;24.760;2022-07-15T14:19:34;4.07;;;2.05;;
52718;SDS011;38616;42.140;24.760;2022-07-15T14:21:59;5.60;;;1.92;;
52718;SDS011;38616;42.140;24.760;2022-07-15T14:24:25;7.47;;;2.20;;
52718;SDS011;38616;42.140;24.760;2022-07-15T14:26:50;4.60;;;1.60;;
52718;SDS011;38616;42.140;24.760;2022-07-15T14:29:15;1.95;;;1.63;;
52718;SDS011;38616;42.140;24.760;2022-07-15T14:31:41;3.63;;;1.25;;
52718;SDS011;38616;42.140;24.760;2022-07-15T14:34:07;2.17;;;1.73;;
52718;SDS011;38616;42.140;24.760;2022-07-15T14:36:32;2.83;;;1.42;;
52718;SDS011;38616;42.140;24.760;2022-07-15T14:38:58;8.50;;;1.90;;
52718;SDS011;38616;42.140;24.760;2022-07-15T14:41:23;4.90;;;1.60;;
52718;SDS011;38616;42.140;24.760;2022-07-15T14:43:49;2.50;;;1.50;;
52718;SDS011;38616;42.140;24.760;2022-07-15T14:46:14;8.10;;;1.63;;
52718;SDS011;38616;42.140;24.760;2022-07-15T14:48:40;5.00;;;1.80;;
52718;SDS011;38616;42.140;24.760;2022-07-15T14:51:05;3.28;;;1.65;;
52718;SDS011;38616;42.140;24.760;2022-07-15T14:53:31;4.38;;;1.70;;
52718;SDS011;38616;42.140;24.760;2022-07-15T14:55:56;4.68;;;2.10;;
52718;SDS011;38616;42.140;24.760;2022-07-15T14:58:22;3.72;;;1.27;;
52718;SDS011;38616;42.140;24.760;2022-07-15T15:00:48;7.78;;;1.90;;
52718;SDS011;38616;42.140;24.760;2022-07-15T15:03:14;2.63;;;1.17;;
52718;SDS011;38616;42.140;24.760;2022-07-15T15:08:06;3.47;;;1.93;;
52718;SDS011;38616;42.140;24.760;2022-07-15T15:10:31;5.95;;;1.67;;
52718;SDS011;38616;42.140;24.760;2022-07-15T15:12:57;3.33;;;1.40;;
52718;SDS011;38616;42.140;24.760;2022-07-15T15:15:22;4.53;;;1.63;;
52718;SDS011;38616;42.140;24.760;2022-07-15T15:17:49;4.22;;;1.67;;
52718;SDS011;38616;42.140;24.760;2022-07-15T15:20:15;5.05;;;1.50;;
52718;SDS011;38616;42.140;24.760;2022-07-15T15:22:40;8.00;;;2.40;;
52718;SDS011;38616;42.140;24.760;2022-07-15T15:25:06;9.93;;;2.13;;
52718;SDS011;38616;42.140;24.760;2022-07-15T15:27:32;3.13;;;1.40;;
52718;SDS011;38616;42.140;24.760;2022-07-15T15:29:58;3.20;;;1.20;;
52718;SDS011;38616;42.140;24.760;2022-07-15T15:32:24;2.47;;;1.83;;
52718;SDS011;38616;42.140;24.760;2022-07-15T15:34:49;4.95;;;1.80;;
52718;SDS011;38616;42.140;24.760;2022-07-15T15:37:15;5.85;;;1.75;;
52718;SDS011;38616;42.140;24.760;2022-07-15T15:39:41;7.10;;;1.90;;
52718;SDS011;38616;42.140;24.760;2022-07-15T15:42:07;5.55;;;2.20;;
52718;SDS011;38616;42.140;24.760;2022-07-15T15:44:33;3.10;;;1.48;;
52718;SDS011;38616;42.140;24.760;2022-07-15T15:46:59;8.35;;;1.65;;
52718;SDS011;38616;42.140;24.760;2022-07-15T15:49:25;7.50;;;1.65;;
52718;SDS011;38616;42.140;24.760;2022-07-15T15:51:50;5.45;;;1.67;;